createdAt,value
2019-03-24T00:01:45.913Z,99369.52
2019-03-24T00:04:21.241Z,99374.85
2019-03-24T00:06:53.748Z,99365.94
2019-03-24T00:09:37.059Z,99365.27
2019-03-24T00:12:09.801Z,99365.27
2019-03-24T00:14:45.233Z,99368.47
2019-03-24T00:17:17.899Z,99370.20
2019-03-24T00:19:53.289Z,99367.87
2019-03-24T00:22:26.105Z,99365.12
2019-03-24T00:25:06.456Z,99362.94
2019-03-24T00:27:38.990Z,99366.17
2019-03-24T00:30:15.453Z,99365.13
2019-03-24T00:32:48.150Z,99365.67
2019-03-24T00:35:29.518Z,99371.17
2019-03-24T00:38:02.950Z,99364.69
2019-03-24T00:40:35.818Z,99361.58
2019-03-24T00:43:08.483Z,99361.47
2019-03-24T00:45:44.066Z,99368.66
2019-03-24T00:48:16.586Z,99355.28
2019-03-24T00:50:56.750Z,99351.42
2019-03-24T00:53:29.210Z,99357.23
2019-03-24T00:56:13.588Z,99352.89
2019-03-24T00:58:46.028Z,99344.41
2019-03-24T01:01:21.693Z,99350.57
2019-03-24T01:03:55.413Z,99352.76
2019-03-24T01:06:30.998Z,99349.87
2019-03-24T01:09:04.273Z,99350.09
2019-03-24T01:11:39.808Z,99349.54
2019-03-24T01:14:12.526Z,99347.98
2019-03-24T01:16:52.206Z,99337.92
2019-03-24T01:19:24.829Z,99344.05
2019-03-24T01:21:57.643Z,99344.46
2019-03-24T01:24:30.231Z,99338.07
2019-03-24T01:27:06.199Z,99335.80
2019-03-24T01:29:38.714Z,99334.00
2019-03-24T01:32:23.651Z,99331.27
2019-03-24T01:34:56.310Z,99325.86
2019-03-24T01:37:29.042Z,99325.20
2019-03-24T01:40:01.661Z,99324.80
2019-03-24T01:42:52.155Z,99320.98
2019-03-24T01:45:24.690Z,99320.81
2019-03-24T01:47:57.163Z,99314.55
2019-03-24T01:50:29.701Z,99324.55
2019-03-24T01:53:02.303Z,99330.89
2019-03-24T01:55:34.841Z,99323.13
2019-03-24T01:58:16.548Z,99317.57
2019-03-24T02:00:49.396Z,99320.16
2019-03-24T02:03:25.005Z,99318.36
2019-03-24T02:05:57.803Z,99317.84
2019-03-24T02:08:31.324Z,99319.52
2019-03-24T02:11:04.154Z,99317.75
2019-03-24T02:13:43.921Z,99318.42
2019-03-24T02:16:16.517Z,99317.40
2019-03-24T02:18:49.031Z,99317.77
2019-03-24T02:21:21.795Z,99312.81
2019-03-24T02:24:04.523Z,99316.42
2019-03-24T02:26:37.008Z,99317.40
2019-03-24T02:29:18.541Z,99315.83
2019-03-24T02:31:50.929Z,99317.25
2019-03-24T02:34:25.635Z,99317.34
2019-03-24T02:36:58.716Z,99312.17
2019-03-24T02:39:31.421Z,99310.50
2019-03-24T02:42:04.524Z,99313.09
2019-03-24T02:44:45.041Z,99317.98
2019-03-24T02:47:17.623Z,99315.99
2019-03-24T02:49:59.184Z,99321.48
2019-03-24T02:52:31.423Z,99318.23
2019-03-24T02:55:03.954Z,99310.19
2019-03-24T02:57:36.462Z,99315.07
2019-03-24T03:00:17.701Z,99310.84
2019-03-24T03:02:50.573Z,99309.20
2019-03-24T03:05:23.167Z,99315.14
2019-03-24T03:07:55.574Z,99318.25
2019-03-24T03:10:38.914Z,99322.47
2019-03-24T03:13:11.886Z,99325.23
2019-03-24T03:15:47.168Z,99319.89
2019-03-24T03:18:19.746Z,99320.98
2019-03-24T03:20:55.105Z,99321.48
2019-03-24T03:23:27.677Z,99324.86
2019-03-24T03:26:08.111Z,99327.85
2019-03-24T03:28:41.094Z,99328.23
2019-03-24T03:31:20.083Z,99324.83
2019-03-24T03:33:53.417Z,99325.30
2019-03-24T03:36:28.945Z,99327.56
2019-03-24T03:39:01.387Z,99330.73
2019-03-24T03:41:37.194Z,99324.41
2019-03-24T03:44:09.626Z,99324.56
2019-03-24T03:46:52.375Z,99330.34
2019-03-24T03:49:19.341Z,99333.00
2019-03-24T03:51:57.103Z,99325.46
2019-03-24T03:54:29.535Z,99325.72
2019-03-24T03:57:09.903Z,99326.65
2019-03-24T03:59:42.390Z,99329.34
2019-03-24T04:02:22.303Z,99330.20
2019-03-24T04:04:54.845Z,99333.03
2019-03-24T04:07:27.334Z,99328.11
2019-03-24T04:09:59.739Z,99333.27
2019-03-24T04:12:41.448Z,99331.63
2019-03-24T04:15:14.137Z,99339.42
2019-03-24T04:17:46.695Z,99336.50
2019-03-24T04:20:19.546Z,99341.72
2019-03-24T04:23:04.520Z,99342.27
2019-03-24T04:25:36.955Z,99344.41
2019-03-24T04:28:16.818Z,99339.81
2019-03-24T04:30:49.267Z,99345.08
2019-03-24T04:33:21.729Z,99341.59
2019-03-24T04:35:54.254Z,99344.30
2019-03-24T04:38:30.557Z,99345.41
2019-03-24T04:41:03.100Z,99345.71
2019-03-24T04:43:45.638Z,99355.33
2019-03-24T04:46:18.070Z,99352.81
2019-03-24T04:48:50.482Z,99352.75
2019-03-24T04:51:22.853Z,99354.61
2019-03-24T04:54:02.501Z,99358.77
2019-03-24T04:56:36.078Z,99365.11
2019-03-24T04:59:13.045Z,99369.88
2019-03-24T05:01:45.613Z,99372.47
2019-03-24T05:04:20.821Z,99371.17
2019-03-24T05:06:54.063Z,99370.76
2019-03-24T05:09:34.000Z,99369.39
2019-03-24T05:12:06.442Z,99369.66
2019-03-24T05:14:46.008Z,99368.31
2019-03-24T05:17:26.712Z,99362.35
2019-03-24T05:19:52.577Z,99365.78
2019-03-24T05:22:24.771Z,99357.79
2019-03-24T05:25:06.556Z,99359.16
2019-03-24T05:27:39.076Z,99360.86
2019-03-24T05:30:11.561Z,99365.91
2019-03-24T05:32:43.997Z,99362.35
2019-03-24T05:35:22.541Z,99367.33
2019-03-24T05:37:55.276Z,99362.48
2019-03-24T05:40:37.542Z,99364.08
2019-03-24T05:43:10.003Z,99365.85
2019-03-24T05:45:47.007Z,99356.68
2019-03-24T05:48:19.640Z,99365.36
2019-03-24T05:50:55.619Z,99360.06
2019-03-24T05:53:28.061Z,99364.16
2019-03-24T05:56:04.592Z,99366.97
2019-03-24T05:58:37.019Z,99367.17
2019-03-24T06:01:14.666Z,99366.97
2019-03-24T06:03:47.269Z,99366.71
2019-03-24T06:06:30.169Z,99365.77
2019-03-24T06:09:02.631Z,99357.91
2019-03-24T06:11:38.315Z,99362.41
2019-03-24T06:14:11.680Z,99370.84
2019-03-24T06:16:48.131Z,99368.25
2019-03-24T06:19:21.249Z,99368.11
2019-03-24T06:22:01.113Z,99364.80
2019-03-24T06:24:33.639Z,99368.28
2019-03-24T06:27:09.137Z,99369.02
2019-03-24T06:29:41.501Z,99367.05
2019-03-24T06:32:21.312Z,99370.67
2019-03-24T06:34:53.792Z,99375.52
2019-03-24T06:37:33.790Z,99376.30
2019-03-24T06:40:06.550Z,99374.84
2019-03-24T06:42:41.873Z,99374.34
2019-03-24T06:45:14.527Z,99374.10
2019-03-24T06:47:57.555Z,99381.84
2019-03-24T06:50:24.729Z,99387.48
2019-03-24T06:52:57.221Z,99387.45
2019-03-24T06:55:29.870Z,99390.51
2019-03-24T06:58:06.172Z,99391.25
2019-03-24T07:00:38.690Z,99389.89
2019-03-24T07:03:29.960Z,99397.02
2019-03-24T07:06:02.688Z,99389.19
2019-03-24T07:08:35.985Z,99390.97
2019-03-24T07:11:13.481Z,99395.27
2019-03-24T07:13:42.792Z,99396.16
2019-03-24T07:16:15.448Z,99392.33
2019-03-24T07:18:51.984Z,99396.88
2019-03-24T07:21:24.750Z,99403.36
2019-03-24T07:24:06.582Z,99407.34
2019-03-24T07:26:39.884Z,99405.44
2019-03-24T07:29:12.693Z,99401.09
2019-03-24T07:31:45.484Z,99402.81
2019-03-24T07:34:22.422Z,99410.52
2019-03-24T07:36:55.768Z,99406.53
2019-03-24T07:39:38.013Z,99411.13
2019-03-24T07:42:11.019Z,99402.93
2019-03-24T07:44:43.965Z,99406.24
2019-03-24T07:47:17.294Z,99407.61
2019-03-24T07:52:29.265Z,99404.28
2019-03-24T07:55:08.819Z,99405.86
2019-03-24T07:57:42.279Z,99407.45
2019-03-24T08:00:38.344Z,99408.94
2019-03-24T08:03:11.832Z,99409.95
2019-03-24T08:05:45.100Z,99406.00
2019-03-24T08:08:17.688Z,99402.73
2019-03-24T08:10:50.235Z,99409.47
2019-03-24T08:13:23.686Z,99400.94
2019-03-24T08:15:56.679Z,99403.41
2019-03-24T08:18:30.399Z,99405.60
2019-03-24T08:21:03.341Z,99400.89
2019-03-24T08:23:35.981Z,99402.05
2019-03-24T08:26:08.684Z,99403.10
2019-03-24T08:28:42.171Z,99400.30
2019-03-24T08:31:15.215Z,99405.15
2019-03-24T08:33:47.937Z,99408.72
2019-03-24T08:36:21.397Z,99404.97
2019-03-24T08:38:54.701Z,99392.41
2019-03-24T08:41:28.843Z,99394.44
2019-03-24T08:44:01.794Z,99398.14
2019-03-24T08:46:34.851Z,99400.66
2019-03-24T08:49:07.429Z,99394.66
2019-03-24T08:51:40.295Z,99388.02
2019-03-24T08:54:14.018Z,99388.95
2019-03-24T08:56:48.074Z,99387.98
2019-03-24T08:59:21.107Z,99386.63
2019-03-24T09:01:53.632Z,99386.21
2019-03-24T09:04:26.550Z,99387.27
2019-03-24T09:07:00.286Z,99385.26
2019-03-24T09:09:33.387Z,99387.43
2019-03-24T09:12:07.077Z,99380.08
2019-03-24T09:14:39.891Z,99377.98
2019-03-24T09:17:12.807Z,99373.59
2019-03-24T09:19:48.966Z,99371.73
2019-03-24T09:22:22.098Z,99366.30
2019-03-24T09:25:02.142Z,99368.84
2019-03-24T09:27:34.662Z,99367.02
2019-03-24T09:30:09.807Z,99363.81
2019-03-24T09:32:42.785Z,99366.86
2019-03-24T09:35:16.557Z,99362.80
2019-03-24T09:37:49.432Z,99360.73
2019-03-24T09:40:29.708Z,99368.97
2019-03-24T09:43:03.922Z,99365.29
2019-03-24T09:45:37.492Z,99361.80
2019-03-24T09:48:10.821Z,99365.71
2019-03-24T09:50:45.329Z,99366.84
2019-03-24T09:53:18.116Z,99363.27
2019-03-24T09:55:52.192Z,99352.38
2019-03-24T09:58:25.307Z,99354.45
2019-03-24T10:00:57.866Z,99347.52
2019-03-24T10:03:31.860Z,99349.45
2019-03-24T10:06:04.718Z,99344.75
2019-03-24T10:08:46.769Z,99337.86
2019-03-24T10:11:12.475Z,99345.14
2019-03-24T10:13:45.090Z,99339.72
2019-03-24T10:16:17.814Z,99334.97
2019-03-24T10:18:50.653Z,99333.31
2019-03-24T10:21:23.644Z,99331.73
2019-03-24T10:23:56.882Z,99325.67
2019-03-24T10:26:29.897Z,99330.98
2019-03-24T10:29:03.048Z,99321.50
2019-03-24T10:31:35.885Z,99319.92
2019-03-24T10:34:11.371Z,99319.35
2019-03-24T10:36:45.064Z,99322.58
2019-03-24T10:39:21.988Z,99321.78
2019-03-24T10:41:55.021Z,99322.83
2019-03-24T10:44:30.970Z,99310.45
2019-03-24T10:47:04.662Z,99313.91
2019-03-24T10:49:41.429Z,99305.84
2019-03-24T10:52:14.502Z,99306.61
2019-03-24T10:54:51.623Z,99299.16
2019-03-24T10:57:25.226Z,99299.36
2019-03-24T11:00:04.355Z,99297.61
2019-03-24T11:02:37.633Z,99293.31
2019-03-24T11:05:12.766Z,99288.07
2019-03-24T11:07:46.381Z,99289.48
2019-03-24T11:10:21.912Z,99289.95
2019-03-24T11:12:55.473Z,99288.08
2019-03-24T11:15:35.794Z,99276.55
2019-03-24T11:18:09.695Z,99286.70
2019-03-24T11:20:45.326Z,99282.22
2019-03-24T11:23:18.063Z,99272.74
2019-03-24T11:25:53.924Z,99277.84
2019-03-24T11:28:26.868Z,99273.61
2019-03-24T11:31:03.605Z,99266.83
2019-03-24T11:33:37.912Z,99268.88
2019-03-24T11:36:15.138Z,99262.72
2019-03-24T11:38:49.632Z,99260.33
2019-03-24T11:41:24.128Z,99257.36
2019-03-24T11:43:56.903Z,99250.40
2019-03-24T11:46:29.530Z,99246.98
2019-03-24T11:49:02.821Z,99238.21
2019-03-24T11:51:36.081Z,99232.92
2019-03-24T11:54:09.214Z,99227.67
2019-03-24T11:56:42.503Z,99227.30
2019-03-24T11:59:15.460Z,99217.41
2019-03-24T12:01:48.314Z,99214.38
2019-03-24T12:04:21.514Z,99210.23
2019-03-24T12:06:54.361Z,99197.34
2019-03-24T12:09:28.379Z,99197.47
2019-03-24T12:12:01.170Z,99195.98
2019-03-24T12:14:33.962Z,99196.56
2019-03-24T12:17:06.865Z,99190.52
2019-03-24T12:19:39.949Z,99184.96
2019-03-24T12:22:14.490Z,99185.31
2019-03-24T12:24:47.061Z,99170.56
2019-03-24T12:27:19.844Z,99170.59
2019-03-24T12:29:52.452Z,99166.69
2019-03-24T12:32:25.239Z,99168.09
2019-03-24T12:34:58.764Z,99164.52
2019-03-24T12:37:32.927Z,99161.31
2019-03-24T12:40:06.346Z,99162.45
2019-03-24T12:42:39.119Z,99153.11
2019-03-24T12:45:12.857Z,99145.23
2019-03-24T12:47:46.285Z,99142.00
2019-03-24T12:50:30.661Z,99135.06
2019-03-24T12:52:53.754Z,99132.94
2019-03-24T12:55:26.918Z,99129.94
2019-03-24T12:58:00.328Z,99129.14
2019-03-24T13:00:41.589Z,99121.16
2019-03-24T13:03:14.537Z,99111.75
2019-03-24T13:05:47.388Z,99116.88
2019-03-24T13:08:21.374Z,99110.84
2019-03-24T13:10:55.012Z,99097.72
2019-03-24T13:13:27.909Z,99105.58
2019-03-24T13:16:00.350Z,99097.27
2019-03-24T13:18:32.964Z,99087.48
2019-03-24T13:21:05.798Z,99086.73
2019-03-24T13:23:42.766Z,99076.81
2019-03-24T13:26:16.231Z,99077.20
2019-03-24T13:28:49.147Z,99067.41
2019-03-24T13:31:21.908Z,99066.35
2019-03-24T13:33:54.710Z,99065.19
2019-03-24T13:36:27.604Z,99062.59
2019-03-24T13:39:00.928Z,99063.73
2019-03-24T13:41:33.522Z,99053.90
2019-03-24T13:44:09.281Z,99055.35
2019-03-24T13:46:42.188Z,99054.78
2019-03-24T13:49:19.064Z,99049.36
2019-03-24T13:51:51.940Z,99041.20
2019-03-24T13:54:28.861Z,99041.86
2019-03-24T13:57:02.018Z,99034.58
2019-03-24T13:59:38.782Z,99036.21
2019-03-24T14:02:11.938Z,99034.35
2019-03-24T14:04:50.691Z,99023.36
2019-03-24T14:07:23.314Z,99025.56
2019-03-24T14:09:59.895Z,99017.98
2019-03-24T14:12:33.055Z,99018.16
2019-03-24T14:15:14.909Z,99012.45
2019-03-24T14:17:49.202Z,99009.41
2019-03-24T14:20:22.300Z,99005.52
2019-03-24T14:22:55.561Z,99010.45
2019-03-24T14:25:30.944Z,98996.18
2019-03-24T14:28:03.466Z,99001.98
2019-03-24T14:30:54.752Z,98994.53
2019-03-24T14:33:27.527Z,98999.20
2019-03-24T14:36:00.372Z,98999.21
2019-03-24T14:38:33.307Z,98984.59
2019-03-24T14:41:07.147Z,98987.81
2019-03-24T14:43:39.803Z,98987.23
2019-03-24T14:46:12.388Z,98979.36
2019-03-24T14:48:46.082Z,98985.30
2019-03-24T14:51:21.224Z,98979.41
2019-03-24T14:53:57.167Z,98977.88
2019-03-24T14:56:38.453Z,98980.84
2019-03-24T14:59:10.976Z,98977.56
2019-03-24T15:01:44.032Z,98970.55
2019-03-24T15:04:19.834Z,98968.68
2019-03-24T15:06:58.387Z,98969.00
2019-03-24T15:09:31.068Z,98966.75
2019-03-24T15:12:04.361Z,98966.18
2019-03-24T15:14:39.125Z,98965.00
2019-03-24T15:17:14.599Z,98970.34
2019-03-24T15:19:47.372Z,98972.02
2019-03-24T15:22:31.014Z,98973.70
2019-03-24T15:25:05.244Z,98972.25
2019-03-24T15:27:38.233Z,98970.98
2019-03-24T15:30:12.631Z,98965.67
2019-03-24T15:32:45.763Z,98975.55
2019-03-24T15:35:20.599Z,98961.55
2019-03-24T15:38:07.814Z,98966.05
2019-03-24T15:40:30.638Z,98956.55
2019-03-24T15:43:07.503Z,98957.49
2019-03-24T15:45:41.385Z,98963.00
2019-03-24T15:48:14.535Z,98956.94
2019-03-24T15:50:47.321Z,98966.58
2019-03-24T15:53:32.876Z,98962.64
2019-03-24T15:56:06.428Z,98967.55
2019-03-24T15:58:42.399Z,98974.01
2019-03-24T16:01:15.003Z,98973.17
2019-03-24T16:03:51.092Z,98970.91
2019-03-24T16:06:24.858Z,98969.12
2019-03-24T16:09:04.347Z,98971.94
2019-03-24T16:11:37.128Z,98970.36
2019-03-24T16:14:09.777Z,98969.89
2019-03-24T16:16:45.459Z,98966.84
2019-03-24T16:19:29.033Z,98961.66
2019-03-24T16:22:02.967Z,98961.81
2019-03-24T16:24:36.007Z,98969.85
2019-03-24T16:27:10.014Z,98964.37
2019-03-24T16:29:43.098Z,98964.48
2019-03-24T16:32:16.143Z,98962.13
2019-03-24T16:34:56.133Z,98965.47
2019-03-24T16:37:29.942Z,98963.16
2019-03-24T16:40:06.830Z,98962.41
2019-03-24T16:42:39.854Z,98960.77
2019-03-24T16:45:12.821Z,98958.78
2019-03-24T16:47:47.063Z,98961.53
2019-03-24T16:50:24.229Z,98963.53
2019-03-24T16:52:57.376Z,98966.05
2019-03-24T16:55:30.409Z,98965.23
2019-03-24T16:58:03.368Z,98964.91
2019-03-24T17:00:42.510Z,98968.38
2019-03-24T17:03:15.852Z,98968.88
2019-03-24T17:05:51.809Z,98966.22
2019-03-24T17:08:24.957Z,98970.38
2019-03-24T17:11:01.333Z,98968.02
2019-03-24T17:13:34.910Z,98964.83
2019-03-24T17:16:10.779Z,98971.55
2019-03-24T17:18:43.654Z,98976.63
2019-03-24T17:21:35.054Z,98971.23
2019-03-24T17:24:07.725Z,98966.55
2019-03-24T17:26:40.606Z,98967.02
2019-03-24T17:29:13.510Z,98970.27
2019-03-24T17:31:46.516Z,98967.08
2019-03-24T17:34:20.136Z,98969.73
2019-03-24T17:36:53.136Z,98976.78
2019-03-24T17:39:27.251Z,98983.34
2019-03-24T17:42:06.030Z,98982.80
2019-03-24T17:44:39.834Z,98988.52
2019-03-24T17:47:13.741Z,98991.12
2019-03-24T17:49:47.508Z,98996.19
2019-03-24T17:52:20.513Z,98996.13
2019-03-24T17:54:54.254Z,99004.97
2019-03-24T17:57:27.623Z,99006.19
2019-03-24T18:00:00.575Z,99006.75
2019-03-24T18:02:33.661Z,99004.13
2019-03-24T18:05:07.262Z,99011.89
2019-03-24T18:07:40.338Z,99007.52
2019-03-24T18:10:13.822Z,99006.92
2019-03-24T18:12:46.833Z,99008.41
2019-03-24T18:15:21.601Z,99016.98
2019-03-24T18:17:55.017Z,99014.98
2019-03-24T18:20:34.204Z,99012.30
2019-03-24T18:23:07.070Z,99015.86
2019-03-24T18:25:40.722Z,99023.91
2019-03-24T18:28:16.099Z,99028.59
2019-03-24T18:30:55.898Z,99035.31
2019-03-24T18:33:29.017Z,99036.66
2019-03-24T18:36:02.808Z,99039.78
2019-03-24T18:38:36.306Z,99038.52
2019-03-24T18:41:09.679Z,99039.42
2019-03-24T18:43:42.696Z,99035.61
2019-03-24T18:46:15.505Z,99040.67
2019-03-24T18:48:48.317Z,99037.98
2019-03-24T18:51:22.245Z,99031.47
2019-03-24T18:53:56.062Z,99034.33
2019-03-24T18:56:28.640Z,99026.64
2019-03-24T18:59:02.666Z,99029.82
2019-03-24T19:01:36.024Z,99030.94
2019-03-24T19:04:08.807Z,99034.41
2019-03-24T19:06:41.875Z,99030.79
2019-03-24T19:09:15.244Z,99038.44
2019-03-24T19:11:48.857Z,99037.38
2019-03-24T19:14:21.621Z,99042.20
2019-03-24T19:16:55.226Z,99045.77
2019-03-24T19:19:28.007Z,99050.34
2019-03-24T19:22:00.933Z,99048.58
2019-03-24T19:24:34.326Z,99052.11
2019-03-24T19:27:06.869Z,99048.62
2019-03-24T19:29:39.533Z,99050.59
2019-03-24T19:32:13.058Z,99055.50
2019-03-24T19:34:46.360Z,99050.67
2019-03-24T19:37:18.804Z,99053.17
2019-03-24T19:39:52.026Z,99051.59
2019-03-24T19:42:25.571Z,99056.33
2019-03-24T19:44:58.764Z,99054.80
2019-03-24T19:47:31.796Z,99055.89
2019-03-24T19:50:04.943Z,99046.48
2019-03-24T19:52:44.559Z,99056.03
2019-03-24T19:55:13.798Z,99052.72
2019-03-24T19:57:47.485Z,99059.78
2019-03-24T20:00:20.548Z,99069.56
2019-03-24T20:02:54.237Z,99064.16
2019-03-24T20:05:27.624Z,99071.66
2019-03-24T20:08:00.987Z,99065.58
2019-03-24T20:10:35.098Z,99069.48
2019-03-24T20:13:08.417Z,99062.77
2019-03-24T20:15:41.515Z,99062.77
2019-03-24T20:18:15.356Z,99063.81
2019-03-24T20:20:49.036Z,99065.94
2019-03-24T20:23:22.496Z,99063.31
2019-03-24T20:25:56.086Z,99062.38
2019-03-24T20:28:37.465Z,99064.16
2019-03-24T20:31:10.965Z,99066.27
2019-03-24T20:33:48.725Z,99067.78
2019-03-24T20:36:22.102Z,99066.20
2019-03-24T20:38:59.898Z,99066.77
2019-03-24T20:41:33.221Z,99062.77
2019-03-24T20:44:11.243Z,99059.88
2019-03-24T20:46:50.351Z,99066.05
2019-03-24T20:49:21.060Z,99068.06
2019-03-24T20:51:54.281Z,99067.29
2019-03-24T20:54:31.190Z,99067.50
2019-03-24T20:57:04.613Z,99071.52
2019-03-24T20:59:38.973Z,99062.04
2019-03-24T21:02:11.784Z,99059.33
2019-03-24T21:04:52.303Z,99059.50
2019-03-24T21:07:25.224Z,99058.11
2019-03-24T21:09:58.597Z,99057.95
2019-03-24T21:12:31.632Z,99054.70
2019-03-24T21:15:11.279Z,99058.17
2019-03-24T21:17:44.207Z,99064.09
2019-03-24T21:20:23.524Z,99061.61
2019-03-24T21:22:57.183Z,99063.46
2019-03-24T21:25:33.470Z,99066.16
2019-03-24T21:28:06.580Z,99071.48
2019-03-24T21:30:43.788Z,99061.89
2019-03-24T21:33:18.404Z,99063.37
2019-03-24T21:35:51.257Z,99066.94
2019-03-24T21:38:24.579Z,99064.62
2019-03-24T21:40:58.023Z,99061.45
2019-03-24T21:43:31.539Z,99061.85
2019-03-24T21:46:13.953Z,99062.30
2019-03-24T21:48:48.347Z,99058.15
2019-03-24T21:51:21.911Z,99058.16
2019-03-24T21:53:56.033Z,99058.20
2019-03-24T21:56:35.857Z,99062.87
2019-03-24T21:59:09.059Z,99063.27
2019-03-24T22:01:45.167Z,99067.95
2019-03-24T22:04:20.782Z,99062.17
2019-03-24T22:06:53.758Z,99066.77
2019-03-24T22:09:26.773Z,99063.87
2019-03-24T22:12:06.083Z,99063.80
2019-03-24T22:14:38.742Z,99065.56
2019-03-24T22:17:15.090Z,99062.49
2019-03-24T22:19:47.803Z,99066.33
2019-03-24T22:22:21.041Z,99069.95
2019-03-24T22:24:53.782Z,99066.51
2019-03-24T22:27:38.011Z,99069.67
2019-03-24T22:30:11.132Z,99066.30
2019-03-24T22:32:47.158Z,99063.59
2019-03-24T22:35:20.473Z,99059.66
2019-03-24T22:37:56.247Z,99056.58
2019-03-24T22:40:29.936Z,99059.77
2019-03-24T22:43:04.311Z,99055.66
2019-03-24T22:45:36.972Z,99059.55
2019-03-24T22:48:10.038Z,99060.29
2019-03-24T22:50:43.148Z,99054.72
2019-03-24T22:53:16.293Z,99056.05
2019-03-24T22:55:48.921Z,99052.34
2019-03-24T22:58:21.724Z,99044.95
2019-03-24T23:00:57.171Z,99040.95
2019-03-24T23:03:30.350Z,99043.45
2019-03-24T23:06:02.992Z,99044.99
2019-03-24T23:08:35.945Z,99040.14
2019-03-24T23:11:10.149Z,99043.86
2019-03-24T23:13:42.711Z,99046.06
2019-03-24T23:16:15.448Z,99033.56
2019-03-24T23:18:48.484Z,99035.06
2019-03-24T23:21:21.299Z,99036.03
2019-03-24T23:23:54.291Z,99026.45
2019-03-24T23:26:28.474Z,99026.66
2019-03-24T23:29:02.249Z,99027.33
2019-03-24T23:31:34.862Z,99026.67
2019-03-24T23:34:08.586Z,99025.21
2019-03-24T23:36:41.348Z,99023.47
2019-03-24T23:39:16.709Z,99028.71
2019-03-24T23:41:49.509Z,99024.86
2019-03-24T23:44:24.068Z,99014.81
2019-03-24T23:46:56.835Z,99013.56
2019-03-24T23:49:29.549Z,99015.02
2019-03-24T23:52:02.272Z,99020.02
2019-03-24T23:54:35.159Z,99013.86
2019-03-24T23:57:07.719Z,99014.80
2019-03-24T23:59:40.313Z,99013.03
